sensor_id;sensor_type;location;lat;lon;timestamp;P1;durP1;ratioP1;P2;durP2;ratioP2
72621;SDS011;60665;53.506;9.582;2024-01-11T00:00:56;18.40;;;7.60;;
72621;SDS011;60665;53.506;9.582;2024-01-11T00:03:24;18.80;;;7.20;;
72621;SDS011;60665;53.506;9.582;2024-01-11T00:05:49;16.90;;;7.85;;
72621;SDS011;60665;53.506;9.582;2024-01-11T00:08:14;17.80;;;7.47;;
72621;SDS011;60665;53.506;9.582;2024-01-11T00:10:40;16.35;;;7.10;;
72621;SDS011;60665;53.506;9.582;2024-01-11T00:13:05;16.93;;;7.23;;
72621;SDS011;60665;53.506;9.582;2024-01-11T00:15:30;18.52;;;7.95;;
72621;SDS011;60665;53.506;9.582;2024-01-11T00:17:56;16.43;;;7.13;;
72621;SDS011;60665;53.506;9.582;2024-01-11T00:20:21;20.52;;;7.97;;
72621;SDS011;60665;53.506;9.582;2024-01-11T00:22:46;17.07;;;7.50;;
72621;SDS011;60665;53.506;9.582;2024-01-11T00:25:12;15.47;;;6.90;;
72621;SDS011;60665;53.506;9.582;2024-01-11T00:27:37;18.17;;;7.15;;
72621;SDS011;60665;53.506;9.582;2024-01-11T00:30:02;14.82;;;6.70;;
72621;SDS011;60665;53.506;9.582;2024-01-11T00:32:28;16.90;;;6.97;;
72621;SDS011;60665;53.506;9.582;2024-01-11T00:34:53;15.00;;;6.67;;
72621;SDS011;60665;53.506;9.582;2024-01-11T00:37:18;16.25;;;6.90;;
72621;SDS011;60665;53.506;9.582;2024-01-11T00:39:44;17.40;;;7.43;;
72621;SDS011;60665;53.506;9.582;2024-01-11T00:42:09;20.23;;;7.50;;
72621;SDS011;60665;53.506;9.582;2024-01-11T00:44:35;18.43;;;7.07;;
72621;SDS011;60665;53.506;9.582;2024-01-11T00:47:00;19.00;;;7.65;;
72621;SDS011;60665;53.506;9.582;2024-01-11T00:49:25;16.23;;;6.87;;
72621;SDS011;60665;53.506;9.582;2024-01-11T00:51:50;16.53;;;6.90;;
72621;SDS011;60665;53.506;9.582;2024-01-11T00:54:16;18.60;;;6.93;;
72621;SDS011;60665;53.506;9.582;2024-01-11T00:56:41;18.00;;;7.63;;
72621;SDS011;60665;53.506;9.582;2024-01-11T00:59:06;16.15;;;6.63;;
72621;SDS011;60665;53.506;9.582;2024-01-11T01:01:32;17.27;;;7.30;;
72621;SDS011;60665;53.506;9.582;2024-01-11T01:03:57;16.20;;;6.55;;
72621;SDS011;60665;53.506;9.582;2024-01-11T01:06:23;16.17;;;6.53;;
72621;SDS011;60665;53.506;9.582;2024-01-11T01:08:48;18.43;;;6.50;;
72621;SDS011;60665;53.506;9.582;2024-01-11T01:11:13;16.83;;;6.37;;
72621;SDS011;60665;53.506;9.582;2024-01-11T01:13:38;14.90;;;5.77;;
72621;SDS011;60665;53.506;9.582;2024-01-11T01:16:04;15.10;;;6.85;;
72621;SDS011;60665;53.506;9.582;2024-01-11T01:18:29;17.88;;;7.00;;
72621;SDS011;60665;53.506;9.582;2024-01-11T01:20:54;15.67;;;6.87;;
72621;SDS011;60665;53.506;9.582;2024-01-11T01:23:20;17.27;;;7.13;;
72621;SDS011;60665;53.506;9.582;2024-01-11T01:25:45;16.40;;;6.95;;
72621;SDS011;60665;53.506;9.582;2024-01-11T01:28:10;17.27;;;6.63;;
72621;SDS011;60665;53.506;9.582;2024-01-11T01:30:36;21.67;;;7.70;;
72621;SDS011;60665;53.506;9.582;2024-01-11T01:33:01;18.48;;;7.63;;
72621;SDS011;60665;53.506;9.582;2024-01-11T01:35:26;20.83;;;8.38;;
72621;SDS011;60665;53.506;9.582;2024-01-11T01:37:52;20.77;;;7.23;;
72621;SDS011;60665;53.506;9.582;2024-01-11T01:40:17;18.77;;;7.33;;
72621;SDS011;60665;53.506;9.582;2024-01-11T01:42:42;19.48;;;7.60;;
72621;SDS011;60665;53.506;9.582;2024-01-11T01:45:09;20.20;;;7.82;;
72621;SDS011;60665;53.506;9.582;2024-01-11T01:47:34;21.95;;;8.77;;
72621;SDS011;60665;53.506;9.582;2024-01-11T01:49:59;19.08;;;7.47;;
72621;SDS011;60665;53.506;9.582;2024-01-11T01:52:24;19.30;;;7.22;;
72621;SDS011;60665;53.506;9.582;2024-01-11T01:54:50;19.27;;;7.63;;
72621;SDS011;60665;53.506;9.582;2024-01-11T01:57:15;22.65;;;8.30;;
72621;SDS011;60665;53.506;9.582;2024-01-11T01:59:41;19.08;;;6.57;;
72621;SDS011;60665;53.506;9.582;2024-01-11T02:02:08;21.15;;;7.72;;
72621;SDS011;60665;53.506;9.582;2024-01-11T02:04:34;20.08;;;6.78;;
72621;SDS011;60665;53.506;9.582;2024-01-11T02:07:00;21.92;;;8.57;;
72621;SDS011;60665;53.506;9.582;2024-01-11T02:09:25;19.00;;;7.47;;
72621;SDS011;60665;53.506;9.582;2024-01-11T02:11:52;20.27;;;7.55;;
72621;SDS011;60665;53.506;9.582;2024-01-11T02:14:18;22.75;;;8.40;;
72621;SDS011;60665;53.506;9.582;2024-01-11T02:16:44;20.45;;;7.72;;
72621;SDS011;60665;53.506;9.582;2024-01-11T02:19:10;21.37;;;8.10;;
72621;SDS011;60665;53.506;9.582;2024-01-11T02:21:37;18.13;;;7.07;;
72621;SDS011;60665;53.506;9.582;2024-01-11T02:24:03;16.77;;;6.53;;
72621;SDS011;60665;53.506;9.582;2024-01-11T02:26:28;17.63;;;6.30;;
72621;SDS011;60665;53.506;9.582;2024-01-11T02:28:54;14.67;;;5.80;;
72621;SDS011;60665;53.506;9.582;2024-01-11T02:31:19;18.95;;;6.88;;
72621;SDS011;60665;53.506;9.582;2024-01-11T02:33:44;15.47;;;6.03;;
72621;SDS011;60665;53.506;9.582;2024-01-11T02:36:10;16.95;;;7.28;;
72621;SDS011;60665;53.506;9.582;2024-01-11T02:38:35;18.13;;;6.32;;
72621;SDS011;60665;53.506;9.582;2024-01-11T02:41:01;15.48;;;6.50;;
72621;SDS011;60665;53.506;9.582;2024-01-11T02:43:27;14.68;;;6.63;;
72621;SDS011;60665;53.506;9.582;2024-01-11T02:45:56;15.93;;;6.65;;
72621;SDS011;60665;53.506;9.582;2024-01-11T02:48:26;18.67;;;6.90;;
72621;SDS011;60665;53.506;9.582;2024-01-11T02:50:52;14.75;;;6.55;;
72621;SDS011;60665;53.506;9.582;2024-01-11T02:53:17;15.67;;;6.23;;
72621;SDS011;60665;53.506;9.582;2024-01-11T02:55:42;18.20;;;7.13;;
72621;SDS011;60665;53.506;9.582;2024-01-11T02:58:07;16.57;;;7.07;;
72621;SDS011;60665;53.506;9.582;2024-01-11T03:00:33;20.27;;;7.50;;
72621;SDS011;60665;53.506;9.582;2024-01-11T03:02:58;18.57;;;7.50;;
72621;SDS011;60665;53.506;9.582;2024-01-11T03:05:23;17.15;;;6.82;;
72621;SDS011;60665;53.506;9.582;2024-01-11T03:07:48;17.77;;;7.27;;
72621;SDS011;60665;53.506;9.582;2024-01-11T03:10:14;20.53;;;8.73;;
72621;SDS011;60665;53.506;9.582;2024-01-11T03:12:39;21.70;;;7.82;;
72621;SDS011;60665;53.506;9.582;2024-01-11T03:15:04;19.85;;;6.93;;
72621;SDS011;60665;53.506;9.582;2024-01-11T03:17:30;19.88;;;7.40;;
72621;SDS011;60665;53.506;9.582;2024-01-11T03:19:55;22.10;;;8.63;;
72621;SDS011;60665;53.506;9.582;2024-01-11T03:22:20;22.10;;;8.30;;
72621;SDS011;60665;53.506;9.582;2024-01-11T03:24:46;20.98;;;8.35;;
72621;SDS011;60665;53.506;9.582;2024-01-11T03:27:11;20.50;;;7.70;;
72621;SDS011;60665;53.506;9.582;2024-01-11T03:29:36;23.40;;;9.40;;
72621;SDS011;60665;53.506;9.582;2024-01-11T03:32:01;20.87;;;7.83;;
72621;SDS011;60665;53.506;9.582;2024-01-11T03:34:27;24.38;;;8.75;;
72621;SDS011;60665;53.506;9.582;2024-01-11T03:36:52;22.42;;;8.65;;
72621;SDS011;60665;53.506;9.582;2024-01-11T03:39:17;25.03;;;8.87;;
72621;SDS011;60665;53.506;9.582;2024-01-11T03:41:46;27.52;;;9.10;;
72621;SDS011;60665;53.506;9.582;2024-01-11T03:46:37;28.63;;;10.15;;
72621;SDS011;60665;53.506;9.582;2024-01-11T03:49:02;24.77;;;8.63;;
72621;SDS011;60665;53.506;9.582;2024-01-11T03:51:27;26.27;;;9.50;;
72621;SDS011;60665;53.506;9.582;2024-01-11T03:53:53;27.70;;;10.00;;
72621;SDS011;60665;53.506;9.582;2024-01-11T03:56:18;24.10;;;8.80;;
72621;SDS011;60665;53.506;9.582;2024-01-11T03:58:44;26.17;;;8.70;;
72621;SDS011;60665;53.506;9.582;2024-01-11T04:01:10;28.25;;;9.13;;
72621;SDS011;60665;53.506;9.582;2024-01-11T04:03:35;24.48;;;8.18;;
72621;SDS011;60665;53.506;9.582;2024-01-11T04:06:00;27.10;;;9.00;;
72621;SDS011;60665;53.506;9.582;2024-01-11T04:08:26;30.92;;;9.45;;
72621;SDS011;60665;53.506;9.582;2024-01-11T04:10:51;23.70;;;8.55;;
72621;SDS011;60665;53.506;9.582;2024-01-11T04:13:16;23.43;;;8.50;;
72621;SDS011;60665;53.506;9.582;2024-01-11T04:15:41;23.23;;;8.73;;
72621;SDS011;60665;53.506;9.582;2024-01-11T04:18:07;29.25;;;8.57;;
72621;SDS011;60665;53.506;9.582;2024-01-11T04:20:32;24.48;;;8.95;;
72621;SDS011;60665;53.506;9.582;2024-01-11T04:22:58;25.67;;;9.40;;
72621;SDS011;60665;53.506;9.582;2024-01-11T04:25:23;23.88;;;8.43;;
72621;SDS011;60665;53.506;9.582;2024-01-11T04:27:48;24.20;;;9.30;;
72621;SDS011;60665;53.506;9.582;2024-01-11T04:30:13;21.87;;;8.40;;
72621;SDS011;60665;53.506;9.582;2024-01-11T04:32:39;22.20;;;8.45;;
72621;SDS011;60665;53.506;9.582;2024-01-11T04:35:04;23.00;;;9.10;;
72621;SDS011;60665;53.506;9.582;2024-01-11T04:37:29;21.00;;;8.50;;
72621;SDS011;60665;53.506;9.582;2024-01-11T04:39:55;20.50;;;7.80;;
72621;SDS011;60665;53.506;9.582;2024-01-11T04:42:20;15.63;;;6.68;;
72621;SDS011;60665;53.506;9.582;2024-01-11T04:44:45;19.97;;;7.13;;
72621;SDS011;60665;53.506;9.582;2024-01-11T04:47:10;15.60;;;5.57;;
72621;SDS011;60665;53.506;9.582;2024-01-11T04:49:36;17.65;;;6.70;;
72621;SDS011;60665;53.506;9.582;2024-01-11T04:52:01;19.20;;;6.78;;
72621;SDS011;60665;53.506;9.582;2024-01-11T04:54:26;17.87;;;7.13;;
72621;SDS011;60665;53.506;9.582;2024-01-11T04:56:51;16.20;;;6.60;;
72621;SDS011;60665;53.506;9.582;2024-01-11T04:59:17;18.00;;;6.40;;
72621;SDS011;60665;53.506;9.582;2024-01-11T05:01:43;15.18;;;5.90;;
72621;SDS011;60665;53.506;9.582;2024-01-11T05:04:10;14.48;;;5.68;;
72621;SDS011;60665;53.506;9.582;2024-01-11T05:06:35;16.37;;;6.07;;
72621;SDS011;60665;53.506;9.582;2024-01-11T05:09:00;15.80;;;5.77;;
72621;SDS011;60665;53.506;9.582;2024-01-11T05:11:26;16.40;;;5.83;;
72621;SDS011;60665;53.506;9.582;2024-01-11T05:13:51;17.95;;;7.13;;
72621;SDS011;60665;53.506;9.582;2024-01-11T05:18:42;18.23;;;6.87;;
72621;SDS011;60665;53.506;9.582;2024-01-11T05:21:07;16.60;;;5.77;;
72621;SDS011;60665;53.506;9.582;2024-01-11T05:23:32;16.37;;;5.97;;
72621;SDS011;60665;53.506;9.582;2024-01-11T05:25:58;12.37;;;5.30;;
72621;SDS011;60665;53.506;9.582;2024-01-11T05:28:23;17.25;;;6.45;;
72621;SDS011;60665;53.506;9.582;2024-01-11T05:30:48;14.43;;;5.10;;
72621;SDS011;60665;53.506;9.582;2024-01-11T05:33:13;14.47;;;4.93;;
72621;SDS011;60665;53.506;9.582;2024-01-11T05:35:39;16.67;;;6.03;;
72621;SDS011;60665;53.506;9.582;2024-01-11T05:38:04;15.67;;;5.43;;
72621;SDS011;60665;53.506;9.582;2024-01-11T05:40:29;16.92;;;6.20;;
72621;SDS011;60665;53.506;9.582;2024-01-11T05:42:55;15.18;;;5.47;;
72621;SDS011;60665;53.506;9.582;2024-01-11T05:45:21;14.85;;;5.72;;
72621;SDS011;60665;53.506;9.582;2024-01-11T05:47:47;12.37;;;4.70;;
72621;SDS011;60665;53.506;9.582;2024-01-11T05:50:12;10.03;;;3.50;;
72621;SDS011;60665;53.506;9.582;2024-01-11T05:52:37;13.05;;;3.88;;
72621;SDS011;60665;53.506;9.582;2024-01-11T05:55:03;10.10;;;3.33;;
72621;SDS011;60665;53.506;9.582;2024-01-11T05:57:28;8.57;;;2.58;;
72621;SDS011;60665;53.506;9.582;2024-01-11T05:59:53;14.10;;;4.57;;
72621;SDS011;60665;53.506;9.582;2024-01-11T06:02:18;12.70;;;4.73;;
72621;SDS011;60665;53.506;9.582;2024-01-11T06:04:45;14.73;;;5.72;;
72621;SDS011;60665;53.506;9.582;2024-01-11T06:07:11;13.15;;;5.05;;
72621;SDS011;60665;53.506;9.582;2024-01-11T06:09:37;17.43;;;6.10;;
72621;SDS011;60665;53.506;9.582;2024-01-11T06:12:02;15.90;;;5.90;;
72621;SDS011;60665;53.506;9.582;2024-01-11T06:14:27;15.77;;;5.90;;
72621;SDS011;60665;53.506;9.582;2024-01-11T06:16:53;16.33;;;6.23;;
72621;SDS011;60665;53.506;9.582;2024-01-11T06:19:18;17.67;;;6.03;;
72621;SDS011;60665;53.506;9.582;2024-01-11T06:21:43;22.07;;;7.40;;
72621;SDS011;60665;53.506;9.582;2024-01-11T06:24:08;19.30;;;7.13;;
72621;SDS011;60665;53.506;9.582;2024-01-11T06:26:34;20.48;;;7.45;;
72621;SDS011;60665;53.506;9.582;2024-01-11T06:28:59;22.50;;;8.07;;
72621;SDS011;60665;53.506;9.582;2024-01-11T06:31:24;19.70;;;7.30;;
72621;SDS011;60665;53.506;9.582;2024-01-11T06:33:49;22.73;;;8.20;;
72621;SDS011;60665;53.506;9.582;2024-01-11T06:36:15;22.60;;;8.10;;
72621;SDS011;60665;53.506;9.582;2024-01-11T06:38:40;21.20;;;8.57;;
72621;SDS011;60665;53.506;9.582;2024-01-11T06:41:06;20.27;;;7.45;;
72621;SDS011;60665;53.506;9.582;2024-01-11T06:43:31;21.63;;;7.75;;
72621;SDS011;60665;53.506;9.582;2024-01-11T06:45:56;22.73;;;8.23;;
72621;SDS011;60665;53.506;9.582;2024-01-11T06:48:22;26.07;;;8.57;;
72621;SDS011;60665;53.506;9.582;2024-01-11T06:50:47;23.03;;;8.00;;
72621;SDS011;60665;53.506;9.582;2024-01-11T06:53:12;21.92;;;7.80;;
72621;SDS011;60665;53.506;9.582;2024-01-11T06:55:37;25.03;;;8.40;;
72621;SDS011;60665;53.506;9.582;2024-01-11T06:58:03;22.35;;;7.53;;
72621;SDS011;60665;53.506;9.582;2024-01-11T07:00:28;22.48;;;7.85;;
72621;SDS011;60665;53.506;9.582;2024-01-11T07:02:54;19.60;;;7.25;;
72621;SDS011;60665;53.506;9.582;2024-01-11T07:05:19;21.80;;;7.73;;
72621;SDS011;60665;53.506;9.582;2024-01-11T07:07:44;22.92;;;8.05;;
72621;SDS011;60665;53.506;9.582;2024-01-11T07:10:10;21.23;;;8.17;;
72621;SDS011;60665;53.506;9.582;2024-01-11T07:12:35;22.57;;;7.73;;
72621;SDS011;60665;53.506;9.582;2024-01-11T07:15:02;21.45;;;7.65;;
72621;SDS011;60665;53.506;9.582;2024-01-11T07:17:29;23.75;;;7.03;;
72621;SDS011;60665;53.506;9.582;2024-01-11T07:19:55;25.00;;;8.13;;
72621;SDS011;60665;53.506;9.582;2024-01-11T07:22:20;25.80;;;7.83;;
72621;SDS011;60665;53.506;9.582;2024-01-11T07:24:45;24.60;;;8.47;;
72621;SDS011;60665;53.506;9.582;2024-01-11T07:27:10;24.88;;;8.38;;
72621;SDS011;60665;53.506;9.582;2024-01-11T07:29:36;25.67;;;8.80;;
72621;SDS011;60665;53.506;9.582;2024-01-11T07:32:01;28.47;;;9.73;;
72621;SDS011;60665;53.506;9.582;2024-01-11T07:34:28;26.42;;;9.32;;
72621;SDS011;60665;53.506;9.582;2024-01-11T07:36:54;29.48;;;9.15;;
72621;SDS011;60665;53.506;9.582;2024-01-11T07:39:19;23.23;;;7.68;;
72621;SDS011;60665;53.506;9.582;2024-01-11T07:41:45;21.55;;;8.05;;
72621;SDS011;60665;53.506;9.582;2024-01-11T07:44:10;23.27;;;8.25;;
72621;SDS011;60665;53.506;9.582;2024-01-11T21:45:40;8.48;;;3.10;;
72621;SDS011;60665;53.506;9.582;2024-01-11T21:48:05;9.48;;;3.95;;
72621;SDS011;60665;53.506;9.582;2024-01-11T21:50:31;8.85;;;4.32;;
72621;SDS011;60665;53.506;9.582;2024-01-11T21:52:56;12.00;;;4.72;;
72621;SDS011;60665;53.506;9.582;2024-01-11T21:55:22;12.77;;;4.65;;
72621;SDS011;60665;53.506;9.582;2024-01-11T21:57:47;15.73;;;5.25;;
72621;SDS011;60665;53.506;9.582;2024-01-11T22:00:13;14.25;;;4.85;;
72621;SDS011;60665;53.506;9.582;2024-01-11T22:02:39;14.63;;;5.15;;
72621;SDS011;60665;53.506;9.582;2024-01-11T22:05:04;9.85;;;4.07;;
72621;SDS011;60665;53.506;9.582;2024-01-11T22:07:30;12.52;;;5.38;;
72621;SDS011;60665;53.506;9.582;2024-01-11T22:09:55;11.43;;;4.85;;
72621;SDS011;60665;53.506;9.582;2024-01-11T22:12:20;14.95;;;3.88;;
72621;SDS011;60665;53.506;9.582;2024-01-11T22:14:46;11.00;;;4.93;;
72621;SDS011;60665;53.506;9.582;2024-01-11T22:17:11;11.85;;;5.00;;
72621;SDS011;60665;53.506;9.582;2024-01-11T22:19:37;10.50;;;4.32;;
72621;SDS011;60665;53.506;9.582;2024-01-11T22:22:02;11.48;;;4.35;;
72621;SDS011;60665;53.506;9.582;2024-01-11T22:24:29;12.30;;;4.47;;
72621;SDS011;60665;53.506;9.582;2024-01-11T22:26:54;15.05;;;5.00;;
72621;SDS011;60665;53.506;9.582;2024-01-11T22:29:20;14.13;;;4.25;;
72621;SDS011;60665;53.506;9.582;2024-01-11T22:31:45;15.02;;;5.07;;
72621;SDS011;60665;53.506;9.582;2024-01-11T22:34:11;13.27;;;4.97;;
72621;SDS011;60665;53.506;9.582;2024-01-11T22:36:36;13.70;;;5.30;;
72621;SDS011;60665;53.506;9.582;2024-01-11T22:39:02;11.40;;;4.78;;
72621;SDS011;60665;53.506;9.582;2024-01-11T22:41:27;12.27;;;4.97;;
72621;SDS011;60665;53.506;9.582;2024-01-11T22:43:54;15.45;;;4.63;;
72621;SDS011;60665;53.506;9.582;2024-01-11T22:46:20;12.75;;;5.13;;
72621;SDS011;60665;53.506;9.582;2024-01-11T22:48:46;11.13;;;3.97;;
72621;SDS011;60665;53.506;9.582;2024-01-11T22:51:11;11.57;;;4.47;;
72621;SDS011;60665;53.506;9.582;2024-01-11T22:53:37;12.43;;;5.32;;
72621;SDS011;60665;53.506;9.582;2024-01-11T22:56:03;12.60;;;4.40;;
72621;SDS011;60665;53.506;9.582;2024-01-11T22:58:29;15.05;;;5.07;;
72621;SDS011;60665;53.506;9.582;2024-01-11T23:00:54;12.00;;;4.88;;
72621;SDS011;60665;53.506;9.582;2024-01-11T23:03:20;12.20;;;4.40;;
72621;SDS011;60665;53.506;9.582;2024-01-11T23:05:46;8.43;;;4.10;;
72621;SDS011;60665;53.506;9.582;2024-01-11T23:08:12;10.48;;;4.90;;
72621;SDS011;60665;53.506;9.582;2024-01-11T23:10:37;11.25;;;4.30;;
72621;SDS011;60665;53.506;9.582;2024-01-11T23:13:03;11.40;;;4.03;;
72621;SDS011;60665;53.506;9.582;2024-01-11T23:15:30;12.35;;;4.53;;
72621;SDS011;60665;53.506;9.582;2024-01-11T23:17:57;9.55;;;3.95;;
72621;SDS011;60665;53.506;9.582;2024-01-11T23:20:23;9.65;;;4.03;;
72621;SDS011;60665;53.506;9.582;2024-01-11T23:22:48;9.88;;;4.32;;
72621;SDS011;60665;53.506;9.582;2024-01-11T23:25:14;11.02;;;4.30;;
72621;SDS011;60665;53.506;9.582;2024-01-11T23:27:39;9.63;;;4.07;;
72621;SDS011;60665;53.506;9.582;2024-01-11T23:30:05;9.15;;;4.00;;
72621;SDS011;60665;53.506;9.582;2024-01-11T23:32:31;9.93;;;4.47;;
72621;SDS011;60665;53.506;9.582;2024-01-11T23:34:56;11.80;;;4.40;;
72621;SDS011;60665;53.506;9.582;2024-01-11T23:37:22;11.82;;;5.18;;
72621;SDS011;60665;53.506;9.582;2024-01-11T23:39:47;9.90;;;3.97;;
72621;SDS011;60665;53.506;9.582;2024-01-11T23:42:13;8.35;;;3.75;;
72621;SDS011;60665;53.506;9.582;2024-01-11T23:44:38;8.77;;;3.83;;
72621;SDS011;60665;53.506;9.582;2024-01-11T23:47:04;8.00;;;3.60;;
72621;SDS011;60665;53.506;9.582;2024-01-11T23:49:30;9.82;;;3.83;;
72621;SDS011;60665;53.506;9.582;2024-01-11T23:51:55;8.70;;;4.00;;
72621;SDS011;60665;53.506;9.582;2024-01-11T23:54:20;9.25;;;3.83;;
72621;SDS011;60665;53.506;9.582;2024-01-11T23:56:46;7.88;;;3.50;;
72621;SDS011;60665;53.506;9.582;2024-01-11T23:59:11;9.32;;;3.80;;
